Latest Coastal Weather Observations for Carnarvon

IDW60701

Issued at 10:35 pm WST Wednesday 16 April 2014 (issued every 10 minutes, with the page automatically refreshed every 10 minutes)

About coastal observations | Map of coastal stations | Coastal observations for WA | Marine services | Other Formats
Station Details ID: 006011 Name: CARNARVON AIRPORT Lat: -24.89 Lon: 113.67 Height: 4.0 m
Data from the previous 72 hours. | See also: Recent months at Carnarvon
Date/Time
WST
Temp

°C
Wind Pressure Rain
since 9am
mm
Weather Cloud Vis
km
Sea
Height
m
Swell
Dir
 
Speed
knots
Gust
knots
hPa Trend Height
m
Period
s
Dir
16/10:30pm 23.4 SSE 10 13 1016.4 - 0.0 - - 10 - - - -
16/10:00pm 23.5 S 10 13 1016.4 - 0.0 - - 10 - - - -
16/09:30pm 23.9 SSE 11 14 1016.2 - 0.0 - - 10 - - - -
16/09:00pm 24.0 S 10 13 1016.1 - 0.0 - - 10 - - - -
16/08:30pm 24.6 S 12 15 1015.7 - 0.0 - - 10 - - - -
16/08:00pm 25.0 S 12 15 1015.4 - 0.0 - - 10 - - - -
16/07:30pm 25.3 S 13 16 1015.2 - 0.0 - - 10 - - - -
16/07:00pm 25.6 S 12 16 1014.9 - 0.0 - - 10 - - - -
16/06:30pm 26.0 S 14 17 1014.6 - 0.0 - - 10 - - - -
16/06:00pm 26.6 SSW 13 17 1014.2 - 0.0 - - 10 - - - -
16/05:30pm 27.6 SSW 14 18 1014.0 - 0.0 - - 10 - - - -
16/05:00pm 28.2 SSW 13 18 1013.8 - 0.0 - - 10 - - - -
16/04:30pm 28.6 S 14 19 1013.7 - 0.0 - - 10 - - - -
16/04:00pm 28.7 SSW 14 18 1013.8 - 0.0 - - 10 - - - -
16/03:30pm 28.4 SSW 14 17 1013.9 - 0.0 - - 10 - - - -
16/03:00pm 28.2 SSW 15 20 1013.9 F 0.0 Fine Clear 35 - - - -
16/02:30pm 28.8 SSW 14 18 1014.2 - 0.0 - - 10 - - - -
16/02:00pm 28.5 SSW 15 19 1014.1 - 0.0 Dust - 10 - - - -
16/01:30pm 28.3 SSW 15 18 1014.4 - 0.0 Dust - 10 - - - -
16/01:00pm 29.1 SSW 15 19 1014.8 - 0.0 - - 10 - - - -
16/12:30pm 28.4 SSW 15 20 1015.3 - 0.0 Dust - 10 - - - -
16/12:00pm 28.5 SSW 13 18 1015.9 F 0.0 Dust Clear 40 - - - -
16/11:30am 28.7 SSW 12 16 1016.5 - 0.0 - - 10 - - - -
16/11:00am 30.0 S 10 13 1017.1 - 0.0 - - 10 - - - -
16/10:30am 32.6 ESE 9 12 1017.5 - 0.0 - - 10 - - - -
16/10:00am 31.4 SE 11 14 1017.6 - 0.0 - - 10 - - - -
16/09:30am 29.8 ESE 10 13 1017.8 - 0.0 - - 10 - - - -
16/09:00am 27.9 ESE 13 16 1017.9 R 0.0 Fine Clear 40 - - - -
16/08:30am 26.6 ESE 11 14 1017.8 - 0.0 - - 10 - - - -
16/08:00am 24.4 SE 11 16 1017.8 - 0.0 - - 10 - - - -
16/07:30am 22.6 SE 9 12 1017.6 - 0.0 - - 10 - - - -
16/07:00am 21.6 SSE 10 12 1017.4 - 0.0 - - 10 - - - -
16/06:30am 21.6 SSE 10 12 1017.1 - 0.0 - - 10 - - - -
16/06:00am 21.9 SSE 10 12 1016.9 F 0.0 Fine Clear 40 - - - -
16/05:30am 22.3 SSE 11 14 1016.7 - 0.0 - - 10 - - - -
16/05:00am 22.5 SSE 12 15 1016.6 - 0.0 - - 10 - - - -
16/04:30am 23.1 SSE 12 15 1016.6 - 0.0 - - 10 - - - -
16/04:00am 23.1 SSE 12 14 1016.6 - 0.0 - - 10 - - - -
16/03:30am 22.9 SSE 11 14 1016.7 - 0.0 - - 10 - - - -
16/03:00am 23.1 SSE 11 14 1016.8 - 0.0 - - 10 - - - -
16/02:30am 23.2 SSE 10 13 1017.1 - 0.0 - - 10 - - - -
16/02:00am 23.3 SSE 10 12 1017.1 - 0.0 - - 10 - - - -
16/01:30am 23.6 SSE 10 12 1017.3 - 0.0 - - 10 - - - -
16/01:00am 23.9 SSE 11 14 1017.3 - 0.0 - - 10 - - - -
16/12:30am 24.2 S 12 16 1017.2 - 0.0 - - 10 - - - -
16/12:00am 24.2 S 12 16 1017.3 - 0.0 - - 10 - - - -
 
Date/Time
WST
Temp

°C
Wind Pressure Rain
since 9am
mm
Weather Cloud Vis
km
Sea
Height
m
Swell
Dir
 
Speed
knots
Gust
knots
hPa Trend Height
m
Period
s
Dir
15/11:30pm 24.5 S 13 16 1017.5 - 0.0 - - 10 - - - -
15/11:00pm 24.4 SSE 13 17 1017.6 - 0.0 - - 10 - - - -
15/10:30pm 24.8 SSE 14 19 1017.9 - 0.0 - - 10 - - - -
15/10:00pm 25.1 SSE 14 20 1017.9 - 0.0 - - 10 - - - -
15/09:30pm 25.2 SSE 16 21 1018.0 - 0.0 - - 10 - - - -
15/09:00pm 25.4 SSE 15 20 1017.9 - 0.0 - - 10 - - - -
15/08:30pm 25.5 SSE 14 18 1017.6 - 0.0 - - 10 - - - -
15/08:00pm 26.1 SSE 14 19 1017.2 - 0.0 - - 10 - - - -
15/07:30pm 26.3 S 14 18 1016.9 - 0.0 - - 10 - - - -
15/07:00pm 26.3 S 16 21 1016.4 - 0.0 - - 10 - - - -
15/06:30pm 26.5 S 15 20 1016.0 - 0.0 - - 10 - - - -
15/06:00pm 27.7 SSW 15 19 1015.8 - 0.0 - - 10 - - - -
15/05:30pm 28.0 S 11 15 1015.6 - 0.0 - - 10 - - - -
15/05:00pm 28.5 SSW 13 17 1015.6 - 0.0 - - 10 - - - -
15/04:30pm 29.1 SSW 14 19 1015.6 - 0.0 - - 10 - - - -
15/04:00pm 29.7 S 15 18 1015.5 - 0.0 - - 10 - - - -
15/03:30pm 29.5 SSW 15 19 1015.5 - 0.0 - - 10 - - - -
15/03:00pm 29.9 SSW 14 20 1015.6 R 0.0 Dust Clear 40 - - - -
15/02:28pm 31.0 S 12 17 1015.6 - 0.0 - - 10 - - - -
15/02:05pm 36.3 SE 15 25 1015.5 - 0.0 - - 10 - - - -
15/02:00pm 36.6 SE 14 20 1015.6 - 0.0 - - 10 - - - -
15/01:33pm 36.3 ESE 15 25 1015.8 - 0.0 - - 10 - - - -
15/01:30pm 36.8 SE 15 24 1015.8 - 0.0 - - 10 - - - -
15/01:06pm 36.8 ESE 16 27 1016.2 - 0.0 - - 10 - - - -
15/01:00pm 36.8 ESE 15 24 1016.2 - 0.0 - - 10 - - - -
15/12:30pm 35.7 ESE 16 23 1016.6 - 0.0 - - 10 - - - -
15/12:19pm 35.7 E 16 26 1016.7 - 0.0 - - 10 - - - -
15/12:00pm 36.1 E 17 23 1017.0 F 0.0 Fine Clear 40 - - - -
15/11:30am 35.5 E 15 20 1017.5 - 0.0 - - 10 - - - -
15/11:00am 34.7 E 14 22 1017.9 - 0.0 - - 10 - - - -
15/10:30am 34.0 E 14 19 1018.1 - 0.0 - - 10 - - - -
15/10:00am 33.0 ENE 14 18 1018.2 - 0.0 - - 10 - - - -
15/09:30am 31.9 ENE 14 18 1018.3 - 0.0 - - 10 - - - -
15/09:00am 30.3 E 13 17 1018.3 R 0.0 Fine Clear 40 - - - -
15/08:30am 28.9 E 11 15 1018.3 - 0.0 - - 10 - - - -
15/08:00am 26.4 E 10 13 1018.0 - 0.0 - - 10 - - - -
15/07:30am 22.9 E 8 9 1017.8 - 0.0 - - 10 - - - -
15/07:00am 19.7 E 8 9 1017.6 - 0.0 - - 10 - - - -
15/06:30am 19.2 E 9 9 1017.1 - 0.0 - - 10 - - - -
15/06:00am 19.7 ENE 9 10 1016.8 F 0.0 Fine Clear 40 - - - -
15/05:30am 19.7 E 9 9 1016.6 - 0.0 - - 10 - - - -
15/05:00am 20.7 E 8 10 1016.5 - 0.0 - - 10 - - - -
15/04:30am 18.8 E 7 8 1016.4 - 0.0 - - 10 - - - -
15/04:00am 19.7 SE 7 7 1016.5 - 0.0 - - 10 - - - -
15/03:30am 20.7 SE 7 8 1016.6 - 0.0 - - 10 - - - -
15/03:00am 22.2 SE 8 10 1016.7 - 0.0 - - 10 - - - -
15/02:30am 23.0 SSE 9 10 1016.6 - 0.0 - - 10 - - - -
15/02:00am 23.5 SE 8 12 1016.8 - 0.0 - - 10 - - - -
15/01:30am 24.3 SSE 9 11 1017.0 - 0.0 - - 10 - - - -
15/01:00am 25.0 SSE 11 13 1016.9 - 0.0 - - 10 - - - -
15/12:30am 25.6 SSE 11 14 1016.7 - 0.0 - - 10 - - - -
15/12:00am 25.1 SSE 9 10 1016.9 - 0.0 - - 10 - - - -
 
Date/Time
WST
Temp

°C
Wind Pressure Rain
since 9am
mm
Weather Cloud Vis
km
Sea
Height
m
Swell
Dir
 
Speed
knots
Gust
knots
hPa Trend Height
m
Period
s
Dir
14/11:30pm 26.1 SSE 11 15 1017.0 - 0.0 - - 10 - - - -
14/11:00pm 26.6 SSE 12 16 1017.1 - 0.0 - - 10 - - - -
14/10:30pm 26.9 SSE 12 17 1017.1 - 0.0 - - 10 - - - -
14/10:00pm 26.6 SSE 13 17 1017.2 - 0.0 - - 10 - - - -
14/09:30pm 26.8 SSE 14 19 1017.1 - 0.0 - - 10 - - - -
14/09:00pm 27.2 SSE 17 21 1016.8 - 0.0 - - 10 - - - -
14/08:55pm 27.2 SSE 17 19 1016.7 - 0.0 - - 10 - - - -
14/08:30pm 25.0 S 7 9 1016.5 - 0.0 - - 10 - - - -
14/08:00pm 25.8 S 9 10 1015.9 - 0.0 - - 10 - - - -
14/07:30pm 25.8 S 8 9 1015.6 - 0.0 - - 10 - - - -
14/07:00pm 26.5 S 7 9 1015.4 - 0.0 - - 10 - - - -
14/06:30pm 27.2 S 9 12 1015.1 - 0.0 - - 10 - - - -
14/06:00pm 28.0 S 12 15 1014.8 - 0.0 - - 10 - - - -
14/05:30pm 29.5 S 13 17 1014.5 - 0.0 - - 10 - - - -
14/05:00pm 29.8 S 14 19 1014.2 - 0.0 - - 10 - - - -
14/04:30pm 31.2 SSW 12 18 1014.1 - 0.0 - - 10 - - - -
14/04:00pm 32.0 SSW 11 17 1014.0 - 0.0 - - 10 - - - -
14/03:30pm 31.0 S 9 19 1014.3 - 0.0 - - 10 - - - -
14/03:24pm 32.5 S 11 19 1014.2 - 0.0 - - 10 - - - -
14/03:00pm 37.8 ESE 15 23 1014.1 F 0.0 Dust Clear 35 - - - -
14/02:30pm 37.9 ESE 16 23 1014.1 - 0.0 Dust - 10 - - - -
14/02:20pm 37.9 ESE 16 27 1014.1 - 0.0 Dust - 10 - - - -
14/02:12pm 37.8 E 15 21 1014.1 - 0.0 Dust - 10 - - - -
14/02:00pm 37.8 ESE 20 26 1014.2 - 0.0 Dust - 10 - - - -
14/01:30pm 38.1 ESE 17 26 1014.5 - 0.0 - - 10 - - - -
14/01:26pm 37.8 ESE 15 26 1014.6 - 0.0 Dust - 10 - - - -
14/01:00pm 37.7 E 14 23 1014.9 - 0.0 - - 10 - - - -
14/12:30pm 37.6 E 15 22 1015.5 - 0.0 - - 10 - - - -
14/12:00pm 36.7 E 12 18 1016.0 F 0.0 Fine Clear 40 - - - -
14/11:30am 36.4 E 14 20 1016.3 - 0.0 - - 10 - - - -
14/11:00am 35.9 ENE 13 18 1016.6 - 0.0 - - 10 - - - -
14/10:30am 34.9 ENE 13 17 1016.6 - 0.0 - - 10 - - - -
14/10:00am 33.3 ENE 15 19 1016.9 - 0.0 - - 10 - - - -
14/09:30am 32.5 ENE 15 21 1017.0 - 0.0 - - 10 - - - -
14/09:00am 31.0 E 14 19 1017.0 R 0.0 Fine Clear 40 - - - -
14/08:30am 29.0 ENE 13 16 1016.7 - 0.0 - - 10 - - - -
14/08:00am 26.2 E 10 14 1016.6 - 0.0 - - 10 - - - -
14/07:30am 23.7 E 9 12 1016.2 - 0.0 - - 10 - - - -
14/07:00am 20.4 E 8 11 1015.9 - 0.0 - - 10 - - - -
14/06:30am 18.7 E 8 9 1015.5 - 0.0 - - 10 - - - -
14/06:00am 18.6 E 8 9 1015.3 F 0.0 Fine Clear 40 - - - -
14/05:30am 18.5 ESE 8 9 1015.1 - 0.0 - - 10 - - - -
14/05:00am 19.4 SE 6 7 1015.0 - 0.0 - - 10 - - - -
14/04:30am 20.1 SE 5 6 1014.9 - 0.0 - - 10 - - - -
14/04:00am 20.9 SSE 7 9 1015.0 - 0.0 - - 10 - - - -
14/03:30am 22.1 SSE 8 9 1015.1 - 0.0 - - 10 - - - -
14/03:00am 19.9 SSE 7 10 1015.2 - 0.0 - - 10 - - - -
14/02:30am 20.6 SE 7 8 1015.2 - 0.0 - - 10 - - - -
14/02:00am 21.8 SSE 7 8 1015.2 - 0.0 - - 10 - - - -
14/01:30am 23.1 SSE 8 9 1015.4 - 0.0 - - 10 - - - -
14/01:00am 24.1 SSE 8 10 1015.5 - 0.0 - - 10 - - - -
14/12:30am 25.2 SSE 9 11 1015.8 - 0.0 - - 10 - - - -
14/12:00am 26.1 SSE 11 14 1015.7 - 0.0 - - 10 - - - -
 
Date/Time
WST
Temp

°C
Wind Pressure Rain
since 9am
mm
Weather Cloud Vis
km
Sea
Height
m
Swell
Dir
 
Speed
knots
Gust
knots
hPa Trend Height
m
Period
s
Dir
13/11:30pm 26.1 SSE 10 12 1015.8 - 0.0 - - 10 - - - -
13/11:00pm 26.6 SSE 11 15 1015.8 - 0.0 - - 10 - - - -

Other Formats:

Comma delimited format used in spreadsheet applications
http://www.bom.gov.au/fwo/IDW60701/IDW60701.94300.axf

JavaScript Object Notation format (JSON) in row-major order
http://www.bom.gov.au/fwo/IDW60701/IDW60701.94300.json